sensor_id;sensor_type;location;lat;lon;timestamp;P1;durP1;ratioP1;P2;durP2;ratioP2
30096;SDS011;16915;51.466;3.610;2023-11-19T00:00:21;48.42;;;7.25;;
30096;SDS011;16915;51.466;3.610;2023-11-19T00:02:47;51.60;;;6.90;;
30096;SDS011;16915;51.466;3.610;2023-11-19T00:05:12;61.60;;;8.73;;
30096;SDS011;16915;51.466;3.610;2023-11-19T00:07:39;68.28;;;8.23;;
30096;SDS011;16915;51.466;3.610;2023-11-19T00:10:11;59.28;;;7.03;;
30096;SDS011;16915;51.466;3.610;2023-11-19T00:12:42;67.13;;;7.25;;
30096;SDS011;16915;51.466;3.610;2023-11-19T00:15:09;59.15;;;7.50;;
30096;SDS011;16915;51.466;3.610;2023-11-19T00:17:36;62.72;;;7.70;;
30096;SDS011;16915;51.466;3.610;2023-11-19T00:20:03;58.92;;;8.10;;
30096;SDS011;16915;51.466;3.610;2023-11-19T00:22:31;49.30;;;7.97;;
30096;SDS011;16915;51.466;3.610;2023-11-19T00:24:56;47.63;;;6.57;;
30096;SDS011;16915;51.466;3.610;2023-11-19T00:27:22;62.55;;;7.97;;
30096;SDS011;16915;51.466;3.610;2023-11-19T00:29:48;71.72;;;7.45;;
30096;SDS011;16915;51.466;3.610;2023-11-19T00:32:14;70.50;;;8.05;;
30096;SDS011;16915;51.466;3.610;2023-11-19T00:34:40;53.00;;;7.28;;
30096;SDS011;16915;51.466;3.610;2023-11-19T00:37:06;58.72;;;8.38;;
30096;SDS011;16915;51.466;3.610;2023-11-19T00:39:31;54.03;;;6.10;;
30096;SDS011;16915;51.466;3.610;2023-11-19T00:41:57;47.88;;;6.88;;
30096;SDS011;16915;51.466;3.610;2023-11-19T00:44:23;72.63;;;8.20;;
30096;SDS011;16915;51.466;3.610;2023-11-19T00:46:48;55.92;;;7.72;;
30096;SDS011;16915;51.466;3.610;2023-11-19T00:49:14;57.42;;;7.00;;
30096;SDS011;16915;51.466;3.610;2023-11-19T00:51:40;60.72;;;6.95;;
30096;SDS011;16915;51.466;3.610;2023-11-19T00:54:05;67.03;;;7.28;;
30096;SDS011;16915;51.466;3.610;2023-11-19T00:56:31;64.53;;;7.80;;
30096;SDS011;16915;51.466;3.610;2023-11-19T00:58:57;56.45;;;6.90;;
30096;SDS011;16915;51.466;3.610;2023-11-19T01:01:22;57.97;;;8.10;;
30096;SDS011;16915;51.466;3.610;2023-11-19T01:03:48;57.38;;;7.40;;
30096;SDS011;16915;51.466;3.610;2023-11-19T01:06:13;51.30;;;6.97;;
30096;SDS011;16915;51.466;3.610;2023-11-19T01:08:42;60.25;;;7.13;;
30096;SDS011;16915;51.466;3.610;2023-11-19T01:11:08;67.15;;;7.93;;
30096;SDS011;16915;51.466;3.610;2023-11-19T01:13:33;59.08;;;7.88;;
30096;SDS011;16915;51.466;3.610;2023-11-19T01:15:59;76.57;;;7.93;;
30096;SDS011;16915;51.466;3.610;2023-11-19T01:18:27;54.90;;;7.68;;
30096;SDS011;16915;51.466;3.610;2023-11-19T01:20:52;67.97;;;8.18;;
30096;SDS011;16915;51.466;3.610;2023-11-19T01:23:18;74.55;;;8.65;;
30096;SDS011;16915;51.466;3.610;2023-11-19T01:25:43;67.78;;;8.95;;
30096;SDS011;16915;51.466;3.610;2023-11-19T01:28:09;63.30;;;8.27;;
30096;SDS011;16915;51.466;3.610;2023-11-19T01:30:34;66.18;;;7.97;;
30096;SDS011;16915;51.466;3.610;2023-11-19T01:33:00;76.15;;;9.43;;
30096;SDS011;16915;51.466;3.610;2023-11-19T01:35:25;64.88;;;8.10;;
30096;SDS011;16915;51.466;3.610;2023-11-19T01:37:51;61.00;;;8.07;;
30096;SDS011;16915;51.466;3.610;2023-11-19T01:40:20;80.45;;;8.90;;
30096;SDS011;16915;51.466;3.610;2023-11-19T01:42:46;59.13;;;7.30;;
30096;SDS011;16915;51.466;3.610;2023-11-19T01:45:11;57.60;;;6.97;;
30096;SDS011;16915;51.466;3.610;2023-11-19T01:47:58;51.75;;;6.43;;
30096;SDS011;16915;51.466;3.610;2023-11-19T01:50:27;60.80;;;7.10;;
30096;SDS011;16915;51.466;3.610;2023-11-19T01:52:53;63.58;;;7.15;;
30096;SDS011;16915;51.466;3.610;2023-11-19T01:55:20;61.88;;;8.27;;
30096;SDS011;16915;51.466;3.610;2023-11-19T01:57:47;75.20;;;9.45;;
30096;SDS011;16915;51.466;3.610;2023-11-19T02:00:14;50.78;;;6.97;;
30096;SDS011;16915;51.466;3.610;2023-11-19T02:02:41;60.78;;;7.32;;
30096;SDS011;16915;51.466;3.610;2023-11-19T02:05:08;56.55;;;8.45;;
30096;SDS011;16915;51.466;3.610;2023-11-19T02:07:35;73.47;;;9.15;;
30096;SDS011;16915;51.466;3.610;2023-11-19T02:10:00;61.60;;;7.50;;
30096;SDS011;16915;51.466;3.610;2023-11-19T02:12:28;58.88;;;7.00;;
30096;SDS011;16915;51.466;3.610;2023-11-19T02:14:54;66.22;;;7.22;;
30096;SDS011;16915;51.466;3.610;2023-11-19T02:17:26;62.78;;;7.00;;
30096;SDS011;16915;51.466;3.610;2023-11-19T02:19:59;63.72;;;7.78;;
30096;SDS011;16915;51.466;3.610;2023-11-19T02:22:25;78.30;;;9.35;;
30096;SDS011;16915;51.466;3.610;2023-11-19T02:24:51;61.83;;;7.63;;
30096;SDS011;16915;51.466;3.610;2023-11-19T02:30:06;64.20;;;8.10;;
30096;SDS011;16915;51.466;3.610;2023-11-19T02:32:33;60.95;;;7.65;;
30096;SDS011;16915;51.466;3.610;2023-11-19T02:35:00;62.53;;;7.63;;
30096;SDS011;16915;51.466;3.610;2023-11-19T02:37:26;58.00;;;8.43;;
30096;SDS011;16915;51.466;3.610;2023-11-19T02:39:53;70.07;;;7.00;;
30096;SDS011;16915;51.466;3.610;2023-11-19T02:42:18;61.33;;;7.28;;
30096;SDS011;16915;51.466;3.610;2023-11-19T02:44:44;60.63;;;7.75;;
30096;SDS011;16915;51.466;3.610;2023-11-19T02:47:11;69.68;;;7.53;;
30096;SDS011;16915;51.466;3.610;2023-11-19T02:49:37;59.50;;;8.05;;
30096;SDS011;16915;51.466;3.610;2023-11-19T02:52:02;69.88;;;8.85;;
30096;SDS011;16915;51.466;3.610;2023-11-19T02:54:30;69.75;;;8.38;;
30096;SDS011;16915;51.466;3.610;2023-11-19T02:56:59;62.58;;;7.20;;
30096;SDS011;16915;51.466;3.610;2023-11-19T02:59:27;54.78;;;7.53;;
30096;SDS011;16915;51.466;3.610;2023-11-19T03:01:52;59.50;;;7.57;;
30096;SDS011;16915;51.466;3.610;2023-11-19T03:04:19;63.88;;;7.63;;
30096;SDS011;16915;51.466;3.610;2023-11-19T03:06:48;68.20;;;7.88;;
30096;SDS011;16915;51.466;3.610;2023-11-19T03:09:14;54.28;;;6.57;;
30096;SDS011;16915;51.466;3.610;2023-11-19T03:11:39;63.67;;;6.93;;
30096;SDS011;16915;51.466;3.610;2023-11-19T03:14:05;57.35;;;7.10;;
30096;SDS011;16915;51.466;3.610;2023-11-19T03:16:31;54.47;;;6.72;;
30096;SDS011;16915;51.466;3.610;2023-11-19T03:18:57;63.53;;;7.47;;
30096;SDS011;16915;51.466;3.610;2023-11-19T03:21:28;68.85;;;8.05;;
30096;SDS011;16915;51.466;3.610;2023-11-19T03:23:54;67.85;;;8.70;;
30096;SDS011;16915;51.466;3.610;2023-11-19T03:26:20;61.30;;;8.98;;
30096;SDS011;16915;51.466;3.610;2023-11-19T03:28:47;62.90;;;7.70;;
30096;SDS011;16915;51.466;3.610;2023-11-19T03:31:12;62.75;;;7.50;;
30096;SDS011;16915;51.466;3.610;2023-11-19T03:33:39;60.67;;;7.05;;
30096;SDS011;16915;51.466;3.610;2023-11-19T03:36:04;65.80;;;8.60;;
30096;SDS011;16915;51.466;3.610;2023-11-19T03:38:30;58.22;;;6.38;;
30096;SDS011;16915;51.466;3.610;2023-11-19T03:40:56;55.53;;;7.10;;
30096;SDS011;16915;51.466;3.610;2023-11-19T03:43:22;46.50;;;6.85;;
30096;SDS011;16915;51.466;3.610;2023-11-19T03:45:47;65.00;;;8.25;;
30096;SDS011;16915;51.466;3.610;2023-11-19T03:48:13;59.72;;;7.00;;
30096;SDS011;16915;51.466;3.610;2023-11-19T03:50:41;65.10;;;8.15;;
30096;SDS011;16915;51.466;3.610;2023-11-19T03:53:07;59.28;;;7.10;;
30096;SDS011;16915;51.466;3.610;2023-11-19T03:55:32;54.67;;;7.70;;
30096;SDS011;16915;51.466;3.610;2023-11-19T03:57:58;59.97;;;7.55;;
30096;SDS011;16915;51.466;3.610;2023-11-19T04:00:23;62.55;;;7.90;;
30096;SDS011;16915;51.466;3.610;2023-11-19T04:02:49;56.85;;;6.80;;
30096;SDS011;16915;51.466;3.610;2023-11-19T04:05:14;63.85;;;8.38;;
30096;SDS011;16915;51.466;3.610;2023-11-19T04:07:40;56.72;;;7.47;;
30096;SDS011;16915;51.466;3.610;2023-11-19T04:10:06;69.50;;;8.15;;
30096;SDS011;16915;51.466;3.610;2023-11-19T04:12:32;77.32;;;7.85;;
30096;SDS011;16915;51.466;3.610;2023-11-19T04:14:57;62.85;;;8.38;;
30096;SDS011;16915;51.466;3.610;2023-11-19T04:17:23;61.55;;;8.45;;
30096;SDS011;16915;51.466;3.610;2023-11-19T04:19:49;60.65;;;8.00;;
30096;SDS011;16915;51.466;3.610;2023-11-19T04:22:14;69.50;;;8.15;;
30096;SDS011;16915;51.466;3.610;2023-11-19T04:24:40;63.10;;;7.88;;
30096;SDS011;16915;51.466;3.610;2023-11-19T04:27:06;61.08;;;7.50;;
30096;SDS011;16915;51.466;3.610;2023-11-19T04:29:31;50.60;;;6.43;;
30096;SDS011;16915;51.466;3.610;2023-11-19T04:31:57;68.63;;;7.35;;
30096;SDS011;16915;51.466;3.610;2023-11-19T04:34:24;46.20;;;6.07;;
30096;SDS011;16915;51.466;3.610;2023-11-19T04:36:49;54.67;;;6.78;;
30096;SDS011;16915;51.466;3.610;2023-11-19T04:39:15;57.85;;;7.80;;
30096;SDS011;16915;51.466;3.610;2023-11-19T04:41:50;59.85;;;6.63;;
30096;SDS011;16915;51.466;3.610;2023-11-19T04:44:19;67.13;;;8.20;;
30096;SDS011;16915;51.466;3.610;2023-11-19T04:46:44;55.53;;;6.65;;
30096;SDS011;16915;51.466;3.610;2023-11-19T04:49:13;54.13;;;7.53;;
30096;SDS011;16915;51.466;3.610;2023-11-19T04:51:40;66.28;;;8.10;;
30096;SDS011;16915;51.466;3.610;2023-11-19T04:54:07;48.78;;;8.10;;
30096;SDS011;16915;51.466;3.610;2023-11-19T04:56:33;57.33;;;7.97;;
30096;SDS011;16915;51.466;3.610;2023-11-19T04:59:00;57.97;;;7.03;;
30096;SDS011;16915;51.466;3.610;2023-11-19T05:01:26;61.63;;;7.18;;
30096;SDS011;16915;51.466;3.610;2023-11-19T05:03:52;59.70;;;6.82;;
30096;SDS011;16915;51.466;3.610;2023-11-19T05:06:18;59.20;;;7.15;;
30096;SDS011;16915;51.466;3.610;2023-11-19T05:08:44;57.80;;;7.55;;
30096;SDS011;16915;51.466;3.610;2023-11-19T05:11:10;59.63;;;7.63;;
30096;SDS011;16915;51.466;3.610;2023-11-19T05:13:37;48.53;;;7.63;;
30096;SDS011;16915;51.466;3.610;2023-11-19T05:16:03;57.78;;;7.13;;
30096;SDS011;16915;51.466;3.610;2023-11-19T05:18:29;64.43;;;8.50;;
30096;SDS011;16915;51.466;3.610;2023-11-19T05:20:54;51.58;;;7.18;;
30096;SDS011;16915;51.466;3.610;2023-11-19T05:23:20;62.10;;;8.32;;
30096;SDS011;16915;51.466;3.610;2023-11-19T05:25:46;47.85;;;6.00;;
30096;SDS011;16915;51.466;3.610;2023-11-19T05:28:12;45.50;;;5.95;;
30096;SDS011;16915;51.466;3.610;2023-11-19T05:30:39;50.45;;;5.80;;
30096;SDS011;16915;51.466;3.610;2023-11-19T05:33:05;55.13;;;7.20;;
30096;SDS011;16915;51.466;3.610;2023-11-19T05:35:31;50.25;;;6.47;;
30096;SDS011;16915;51.466;3.610;2023-11-19T05:37:57;45.85;;;5.82;;
30096;SDS011;16915;51.466;3.610;2023-11-19T05:40:23;49.35;;;5.95;;
30096;SDS011;16915;51.466;3.610;2023-11-19T05:42:48;50.70;;;6.63;;
30096;SDS011;16915;51.466;3.610;2023-11-19T05:45:14;49.40;;;7.25;;
30096;SDS011;16915;51.466;3.610;2023-11-19T05:47:40;56.42;;;6.90;;
30096;SDS011;16915;51.466;3.610;2023-11-19T05:50:06;59.70;;;7.00;;
30096;SDS011;16915;51.466;3.610;2023-11-19T05:52:32;50.17;;;6.00;;
30096;SDS011;16915;51.466;3.610;2023-11-19T05:55:01;46.33;;;5.45;;
30096;SDS011;16915;51.466;3.610;2023-11-19T05:59:55;57.65;;;5.53;;
30096;SDS011;16915;51.466;3.610;2023-11-19T06:02:21;35.17;;;5.60;;
30096;SDS011;16915;51.466;3.610;2023-11-19T06:04:46;45.90;;;6.22;;
30096;SDS011;16915;51.466;3.610;2023-11-19T06:07:13;43.42;;;5.05;;
30096;SDS011;16915;51.466;3.610;2023-11-19T06:09:40;43.35;;;6.05;;
30096;SDS011;16915;51.466;3.610;2023-11-19T06:12:06;38.85;;;4.90;;
30096;SDS011;16915;51.466;3.610;2023-11-19T06:14:32;50.47;;;4.78;;
30096;SDS011;16915;51.466;3.610;2023-11-19T06:16:58;49.13;;;5.25;;
30096;SDS011;16915;51.466;3.610;2023-11-19T06:19:24;39.17;;;5.57;;
30096;SDS011;16915;51.466;3.610;2023-11-19T06:21:50;42.60;;;5.78;;
30096;SDS011;16915;51.466;3.610;2023-11-19T06:24:16;45.83;;;5.20;;
30096;SDS011;16915;51.466;3.610;2023-11-19T06:26:42;38.13;;;5.72;;
30096;SDS011;16915;51.466;3.610;2023-11-19T06:29:07;41.13;;;5.40;;
30096;SDS011;16915;51.466;3.610;2023-11-19T06:31:33;49.42;;;4.95;;
30096;SDS011;16915;51.466;3.610;2023-11-19T06:33:58;46.65;;;6.50;;
30096;SDS011;16915;51.466;3.610;2023-11-19T06:36:24;44.40;;;5.55;;
30096;SDS011;16915;51.466;3.610;2023-11-19T06:38:51;49.05;;;6.40;;
30096;SDS011;16915;51.466;3.610;2023-11-19T06:41:17;40.55;;;5.45;;
30096;SDS011;16915;51.466;3.610;2023-11-19T06:43:43;41.05;;;5.50;;
30096;SDS011;16915;51.466;3.610;2023-11-19T06:46:17;42.78;;;5.40;;
30096;SDS011;16915;51.466;3.610;2023-11-19T06:48:44;31.95;;;5.25;;
30096;SDS011;16915;51.466;3.610;2023-11-19T06:51:10;33.28;;;5.80;;
30096;SDS011;16915;51.466;3.610;2023-11-19T06:53:36;46.22;;;5.53;;
30096;SDS011;16915;51.466;3.610;2023-11-19T06:56:02;44.53;;;5.10;;
30096;SDS011;16915;51.466;3.610;2023-11-19T06:58:31;48.83;;;6.55;;
30096;SDS011;16915;51.466;3.610;2023-11-19T07:01:00;43.47;;;5.93;;
30096;SDS011;16915;51.466;3.610;2023-11-19T07:03:26;34.97;;;5.57;;
30096;SDS011;16915;51.466;3.610;2023-11-19T07:05:51;40.72;;;5.90;;
30096;SDS011;16915;51.466;3.610;2023-11-19T07:08:17;34.35;;;4.93;;
30096;SDS011;16915;51.466;3.610;2023-11-19T07:10:42;40.08;;;6.85;;
30096;SDS011;16915;51.466;3.610;2023-11-19T07:13:08;38.47;;;4.85;;
30096;SDS011;16915;51.466;3.610;2023-11-19T07:15:34;46.22;;;5.57;;
30096;SDS011;16915;51.466;3.610;2023-11-19T07:18:00;36.15;;;4.65;;
30096;SDS011;16915;51.466;3.610;2023-11-19T07:20:26;45.00;;;7.57;;
30096;SDS011;16915;51.466;3.610;2023-11-19T07:22:52;38.45;;;4.60;;
30096;SDS011;16915;51.466;3.610;2023-11-19T07:25:19;47.65;;;7.30;;
30096;SDS011;16915;51.466;3.610;2023-11-19T07:27:45;41.28;;;5.63;;
30096;SDS011;16915;51.466;3.610;2023-11-19T07:30:13;37.08;;;4.68;;
30096;SDS011;16915;51.466;3.610;2023-11-19T07:32:38;39.38;;;4.63;;
30096;SDS011;16915;51.466;3.610;2023-11-19T07:35:04;37.97;;;5.03;;
30096;SDS011;16915;51.466;3.610;2023-11-19T07:37:30;39.33;;;4.60;;
30096;SDS011;16915;51.466;3.610;2023-11-19T07:39:56;42.03;;;5.65;;
30096;SDS011;16915;51.466;3.610;2023-11-19T07:42:22;37.00;;;5.65;;
30096;SDS011;16915;51.466;3.610;2023-11-19T07:44:48;33.17;;;5.25;;
30096;SDS011;16915;51.466;3.610;2023-11-19T07:47:14;45.15;;;5.60;;
30096;SDS011;16915;51.466;3.610;2023-11-19T07:49:39;39.70;;;5.00;;
30096;SDS011;16915;51.466;3.610;2023-11-19T07:52:05;33.72;;;5.28;;
30096;SDS011;16915;51.466;3.610;2023-11-19T07:54:31;40.58;;;5.45;;
30096;SDS011;16915;51.466;3.610;2023-11-19T07:56:56;40.20;;;5.57;;
30096;SDS011;16915;51.466;3.610;2023-11-19T07:59:22;38.40;;;5.30;;
30096;SDS011;16915;51.466;3.610;2023-11-19T08:01:47;38.28;;;5.57;;
30096;SDS011;16915;51.466;3.610;2023-11-19T08:04:13;32.10;;;5.47;;
30096;SDS011;16915;51.466;3.610;2023-11-19T08:06:38;43.20;;;5.57;;
30096;SDS011;16915;51.466;3.610;2023-11-19T08:09:04;38.67;;;5.10;;
30096;SDS011;16915;51.466;3.610;2023-11-19T08:11:31;50.75;;;5.20;;
30096;SDS011;16915;51.466;3.610;2023-11-19T08:13:57;44.05;;;5.90;;
30096;SDS011;16915;51.466;3.610;2023-11-19T08:16:22;42.30;;;5.30;;
30096;SDS011;16915;51.466;3.610;2023-11-19T08:18:48;39.75;;;5.00;;
30096;SDS011;16915;51.466;3.610;2023-11-19T08:21:13;41.05;;;5.68;;
30096;SDS011;16915;51.466;3.610;2023-11-19T08:23:39;44.55;;;5.82;;
30096;SDS011;16915;51.466;3.610;2023-11-19T08:26:05;44.70;;;5.57;;
30096;SDS011;16915;51.466;3.610;2023-11-19T08:28:31;40.25;;;5.88;;
30096;SDS011;16915;51.466;3.610;2023-11-19T08:30:59;33.17;;;5.22;;
30096;SDS011;16915;51.466;3.610;2023-11-19T08:33:25;41.78;;;6.50;;
30096;SDS011;16915;51.466;3.610;2023-11-19T08:35:51;50.45;;;5.32;;
30096;SDS011;16915;51.466;3.610;2023-11-19T08:38:16;43.13;;;6.30;;
30096;SDS011;16915;51.466;3.610;2023-11-19T08:40:42;53.13;;;6.05;;
30096;SDS011;16915;51.466;3.610;2023-11-19T08:43:07;42.45;;;5.40;;
30096;SDS011;16915;51.466;3.610;2023-11-19T08:45:33;39.53;;;5.55;;
30096;SDS011;16915;51.466;3.610;2023-11-19T08:47:59;41.22;;;6.13;;
30096;SDS011;16915;51.466;3.610;2023-11-19T08:50:24;38.45;;;5.43;;
30096;SDS011;16915;51.466;3.610;2023-11-19T08:52:50;56.28;;;6.75;;
30096;SDS011;16915;51.466;3.610;2023-11-19T08:55:15;40.35;;;5.57;;
30096;SDS011;16915;51.466;3.610;2023-11-19T08:57:41;50.00;;;6.80;;
30096;SDS011;16915;51.466;3.610;2023-11-19T09:00:07;54.15;;;6.43;;
30096;SDS011;16915;51.466;3.610;2023-11-19T09:02:36;43.58;;;5.65;;
30096;SDS011;16915;51.466;3.610;2023-11-19T09:05:04;37.50;;;4.63;;
30096;SDS011;16915;51.466;3.610;2023-11-19T09:07:32;41.17;;;4.95;;
30096;SDS011;16915;51.466;3.610;2023-11-19T09:09:58;40.45;;;5.88;;
30096;SDS011;16915;51.466;3.610;2023-11-19T09:12:23;41.70;;;6.18;;
30096;SDS011;16915;51.466;3.610;2023-11-19T09:14:49;44.75;;;5.95;;
30096;SDS011;16915;51.466;3.610;2023-11-19T09:17:14;40.92;;;5.38;;
30096;SDS011;16915;51.466;3.610;2023-11-19T09:19:40;40.30;;;5.70;;
30096;SDS011;16915;51.466;3.610;2023-11-19T09:22:06;29.40;;;5.43;;
30096;SDS011;16915;51.466;3.610;2023-11-19T09:24:31;35.88;;;4.93;;
30096;SDS011;16915;51.466;3.610;2023-11-19T09:26:57;44.38;;;6.47;;
30096;SDS011;16915;51.466;3.610;2023-11-19T09:29:22;33.10;;;5.05;;
30096;SDS011;16915;51.466;3.610;2023-11-19T09:31:48;33.72;;;4.82;;
30096;SDS011;16915;51.466;3.610;2023-11-19T09:34:14;32.80;;;6.00;;
30096;SDS011;16915;51.466;3.610;2023-11-19T09:36:39;30.83;;;4.22;;
30096;SDS011;16915;51.466;3.610;2023-11-19T09:39:09;28.23;;;3.95;;
30096;SDS011;16915;51.466;3.610;2023-11-19T09:41:35;33.42;;;4.32;;
30096;SDS011;16915;51.466;3.610;2023-11-19T09:44:01;32.05;;;5.20;;
30096;SDS011;16915;51.466;3.610;2023-11-19T09:46:27;34.00;;;4.25;;
30096;SDS011;16915;51.466;3.610;2023-11-19T09:48:54;33.45;;;5.30;;
30096;SDS011;16915;51.466;3.610;2023-11-19T09:51:22;37.72;;;4.88;;
30096;SDS011;16915;51.466;3.610;2023-11-19T09:53:48;36.10;;;5.13;;
30096;SDS011;16915;51.466;3.610;2023-11-19T09:56:14;37.90;;;5.13;;
30096;SDS011;16915;51.466;3.610;2023-11-19T09:58:42;41.88;;;6.22;;
30096;SDS011;16915;51.466;3.610;2023-11-19T10:01:07;32.17;;;4.90;;
30096;SDS011;16915;51.466;3.610;2023-11-19T10:03:35;37.42;;;5.38;;
30096;SDS011;16915;51.466;3.610;2023-11-19T10:06:04;32.80;;;4.38;;
30096;SDS011;16915;51.466;3.610;2023-11-19T10:08:32;30.77;;;4.68;;
30096;SDS011;16915;51.466;3.610;2023-11-19T10:10:58;25.92;;;4.15;;
30096;SDS011;16915;51.466;3.610;2023-11-19T10:13:30;29.73;;;4.57;;
30096;SDS011;16915;51.466;3.610;2023-11-19T10:15:56;31.77;;;4.20;;
30096;SDS011;16915;51.466;3.610;2023-11-19T10:18:27;32.78;;;5.10;;
30096;SDS011;16915;51.466;3.610;2023-11-19T10:20:53;33.38;;;4.88;;
30096;SDS011;16915;51.466;3.610;2023-11-19T10:23:20;39.15;;;5.13;;
30096;SDS011;16915;51.466;3.610;2023-11-19T10:25:45;40.63;;;5.78;;
30096;SDS011;16915;51.466;3.610;2023-11-19T10:28:11;33.90;;;5.03;;
30096;SDS011;16915;51.466;3.610;2023-11-19T10:30:39;44.75;;;5.40;;
30096;SDS011;16915;51.466;3.610;2023-11-19T10:33:10;46.55;;;5.65;;
30096;SDS011;16915;51.466;3.610;2023-11-19T10:36:03;43.10;;;5.65;;
30096;SDS011;16915;51.466;3.610;2023-11-19T10:38:28;35.78;;;6.00;;
30096;SDS011;16915;51.466;3.610;2023-11-19T10:40:54;45.08;;;6.20;;
30096;SDS011;16915;51.466;3.610;2023-11-19T10:43:20;36.78;;;5.47;;
30096;SDS011;16915;51.466;3.610;2023-11-19T10:45:49;38.03;;;5.10;;
30096;SDS011;16915;51.466;3.610;2023-11-19T10:48:15;31.17;;;4.65;;
30096;SDS011;16915;51.466;3.610;2023-11-19T10:50:41;33.80;;;5.20;;
30096;SDS011;16915;51.466;3.610;2023-11-19T10:53:08;31.52;;;5.07;;
30096;SDS011;16915;51.466;3.610;2023-11-19T10:55:36;32.05;;;5.25;;
30096;SDS011;16915;51.466;3.610;2023-11-19T10:58:06;35.58;;;5.45;;
30096;SDS011;16915;51.466;3.610;2023-11-19T11:00:44;34.53;;;5.40;;
30096;SDS011;16915;51.466;3.610;2023-11-19T11:03:17;39.42;;;6.00;;
30096;SDS011;16915;51.466;3.610;2023-11-19T11:05:47;43.78;;;5.90;;
30096;SDS011;16915;51.466;3.610;2023-11-19T11:08:14;45.80;;;7.40;;
30096;SDS011;16915;51.466;3.610;2023-11-19T11:10:42;39.35;;;6.22;;
30096;SDS011;16915;51.466;3.610;2023-11-19T11:13:09;43.40;;;6.70;;
30096;SDS011;16915;51.466;3.610;2023-11-19T11:15:35;48.05;;;7.45;;
30096;SDS011;16915;51.466;3.610;2023-11-19T11:18:02;40.33;;;6.18;;
30096;SDS011;16915;51.466;3.610;2023-11-19T11:20:29;44.72;;;7.38;;
30096;SDS011;16915;51.466;3.610;2023-11-19T11:23:22;37.67;;;5.97;;
30096;SDS011;16915;51.466;3.610;2023-11-19T11:25:54;31.83;;;5.25;;
30096;SDS011;16915;51.466;3.610;2023-11-19T11:29:17;37.30;;;6.15;;
30096;SDS011;16915;51.466;3.610;2023-11-19T11:31:41;37.10;;;5.20;;
30096;SDS011;16915;51.466;3.610;2023-11-19T11:40:03;22.52;;;3.22;;
30096;SDS011;16915;51.466;3.610;2023-11-19T11:42:35;29.52;;;4.07;;
30096;SDS011;16915;51.466;3.610;2023-11-19T11:50:08;27.33;;;3.72;;
30096;SDS011;16915;51.466;3.610;2023-11-19T11:57:51;26.98;;;4.78;;
30096;SDS011;16915;51.466;3.610;2023-11-19T12:03:00;22.40;;;4.60;;
30096;SDS011;16915;51.466;3.610;2023-11-19T12:05:27;27.13;;;4.15;;
30096;SDS011;16915;51.466;3.610;2023-11-19T12:07:54;31.33;;;4.35;;
30096;SDS011;16915;51.466;3.610;2023-11-19T12:10:20;24.40;;;5.35;;
30096;SDS011;16915;51.466;3.610;2023-11-19T12:12:47;29.52;;;4.93;;
30096;SDS011;16915;51.466;3.610;2023-11-19T12:15:12;29.13;;;4.75;;
30096;SDS011;16915;51.466;3.610;2023-11-19T12:17:43;24.05;;;4.70;;
30096;SDS011;16915;51.466;3.610;2023-11-19T12:20:16;18.52;;;4.28;;
30096;SDS011;16915;51.466;3.610;2023-11-19T12:25:14;29.02;;;4.40;;
30096;SDS011;16915;51.466;3.610;2023-11-19T12:27:50;25.92;;;4.78;;
30096;SDS011;16915;51.466;3.610;2023-11-19T12:30:18;27.45;;;4.22;;
30096;SDS011;16915;51.466;3.610;2023-11-19T12:32:47;30.63;;;4.82;;
30096;SDS011;16915;51.466;3.610;2023-11-19T12:35:13;33.88;;;5.63;;
30096;SDS011;16915;51.466;3.610;2023-11-19T12:37:39;23.52;;;4.25;;
30096;SDS011;16915;51.466;3.610;2023-11-19T12:40:10;32.45;;;5.22;;
30096;SDS011;16915;51.466;3.610;2023-11-19T12:42:37;27.02;;;4.35;;
30096;SDS011;16915;51.466;3.610;2023-11-19T12:45:04;26.77;;;4.60;;
30096;SDS011;16915;51.466;3.610;2023-11-19T12:47:30;22.77;;;4.60;;
30096;SDS011;16915;51.466;3.610;2023-11-19T12:49:56;26.73;;;4.70;;
30096;SDS011;16915;51.466;3.610;2023-11-19T12:52:22;28.98;;;4.15;;
30096;SDS011;16915;51.466;3.610;2023-11-19T12:54:48;24.80;;;4.32;;
30096;SDS011;16915;51.466;3.610;2023-11-19T12:57:14;29.65;;;3.92;;
30096;SDS011;16915;51.466;3.610;2023-11-19T12:59:40;31.00;;;5.82;;
30096;SDS011;16915;51.466;3.610;2023-11-19T13:02:06;27.50;;;4.55;;
30096;SDS011;16915;51.466;3.610;2023-11-19T13:04:33;20.80;;;4.20;;
30096;SDS011;16915;51.466;3.610;2023-11-19T13:06:59;23.90;;;4.18;;
30096;SDS011;16915;51.466;3.610;2023-11-19T13:09:25;21.48;;;4.22;;
30096;SDS011;16915;51.466;3.610;2023-11-19T13:11:52;19.48;;;3.35;;
30096;SDS011;16915;51.466;3.610;2023-11-19T13:14:18;29.40;;;4.50;;
30096;SDS011;16915;51.466;3.610;2023-11-19T13:16:44;43.03;;;4.35;;
30096;SDS011;16915;51.466;3.610;2023-11-19T13:19:14;21.60;;;3.90;;
30096;SDS011;16915;51.466;3.610;2023-11-19T13:21:41;23.88;;;4.20;;
30096;SDS011;16915;51.466;3.610;2023-11-19T13:24:07;24.80;;;4.45;;
30096;SDS011;16915;51.466;3.610;2023-11-19T13:26:32;28.13;;;5.45;;
30096;SDS011;16915;51.466;3.610;2023-11-19T13:28:58;27.13;;;4.57;;
30096;SDS011;16915;51.466;3.610;2023-11-19T13:31:24;29.90;;;4.88;;
30096;SDS011;16915;51.466;3.610;2023-11-19T13:33:50;25.50;;;4.63;;
30096;SDS011;16915;51.466;3.610;2023-11-19T13:36:16;35.70;;;5.70;;
30096;SDS011;16915;51.466;3.610;2023-11-19T13:38:41;16.25;;;3.58;;
30096;SDS011;16915;51.466;3.610;2023-11-19T13:41:09;29.67;;;4.72;;
30096;SDS011;16915;51.466;3.610;2023-11-19T13:43:36;30.70;;;4.30;;
30096;SDS011;16915;51.466;3.610;2023-11-19T13:46:02;32.10;;;4.22;;
30096;SDS011;16915;51.466;3.610;2023-11-19T13:48:27;31.70;;;4.05;;
30096;SDS011;16915;51.466;3.610;2023-11-19T13:50:54;28.08;;;3.95;;
30096;SDS011;16915;51.466;3.610;2023-11-19T13:53:20;27.95;;;3.75;;
30096;SDS011;16915;51.466;3.610;2023-11-19T13:55:46;17.38;;;3.13;;
30096;SDS011;16915;51.466;3.610;2023-11-19T13:58:12;23.02;;;4.88;;
30096;SDS011;16915;51.466;3.610;2023-11-19T14:00:38;17.45;;;2.70;;
30096;SDS011;16915;51.466;3.610;2023-11-19T14:03:03;18.90;;;3.30;;
30096;SDS011;16915;51.466;3.610;2023-11-19T14:05:29;26.58;;;4.05;;
30096;SDS011;16915;51.466;3.610;2023-11-19T14:07:55;23.98;;;3.80;;
30096;SDS011;16915;51.466;3.610;2023-11-19T14:10:21;20.40;;;3.33;;
30096;SDS011;16915;51.466;3.610;2023-11-19T14:12:47;19.85;;;2.88;;
30096;SDS011;16915;51.466;3.610;2023-11-19T14:15:14;27.58;;;3.88;;
30096;SDS011;16915;51.466;3.610;2023-11-19T14:17:42;23.73;;;3.17;;
30096;SDS011;16915;51.466;3.610;2023-11-19T14:20:08;29.88;;;4.25;;
30096;SDS011;16915;51.466;3.610;2023-11-19T14:22:41;26.05;;;3.47;;
30096;SDS011;16915;51.466;3.610;2023-11-19T14:25:08;21.90;;;3.67;;
30096;SDS011;16915;51.466;3.610;2023-11-19T14:27:36;21.55;;;3.35;;
30096;SDS011;16915;51.466;3.610;2023-11-19T14:30:05;18.38;;;2.97;;
30096;SDS011;16915;51.466;3.610;2023-11-19T14:32:32;31.20;;;4.45;;
30096;SDS011;16915;51.466;3.610;2023-11-19T14:34:57;27.13;;;4.03;;
30096;SDS011;16915;51.466;3.610;2023-11-19T14:37:23;22.00;;;3.67;;
30096;SDS011;16915;51.466;3.610;2023-11-19T14:39:49;22.70;;;3.47;;
30096;SDS011;16915;51.466;3.610;2023-11-19T14:42:16;20.95;;;3.90;;
30096;SDS011;16915;51.466;3.610;2023-11-19T14:44:42;23.70;;;3.88;;
30096;SDS011;16915;51.466;3.610;2023-11-19T14:47:07;23.02;;;4.03;;
30096;SDS011;16915;51.466;3.610;2023-11-19T14:49:36;23.50;;;3.40;;
30096;SDS011;16915;51.466;3.610;2023-11-19T14:52:04;28.73;;;3.97;;
30096;SDS011;16915;51.466;3.610;2023-11-19T14:54:30;19.10;;;2.47;;
30096;SDS011;16915;51.466;3.610;2023-11-19T14:56:56;24.05;;;3.53;;